createdAt,value
2023-04-15T00:03:35.169Z,4.85
2023-04-15T00:06:05.586Z,5.75
2023-04-15T00:08:33.033Z,5.20
2023-04-15T00:11:03.278Z,4.63
2023-04-15T00:13:32.763Z,4.43
2023-04-15T00:15:59.895Z,5.32
2023-04-15T00:18:27.029Z,4.88
2023-04-15T00:20:54.441Z,4.38
2023-04-15T00:23:21.522Z,4.00
2023-04-15T00:25:49.030Z,3.42
2023-04-15T00:28:16.391Z,4.82
2023-04-15T00:30:44.295Z,3.22
2023-04-15T00:33:12.036Z,4.82
2023-04-15T00:35:40.052Z,5.50
2023-04-15T00:38:11.028Z,4.45
2023-04-15T00:40:38.377Z,4.22
2023-04-15T00:43:05.766Z,4.25
2023-04-15T00:45:33.940Z,3.65
2023-04-15T00:48:01.116Z,3.95
2023-04-15T00:50:29.110Z,4.20
2023-04-15T00:52:56.292Z,3.55
2023-04-15T00:55:27.381Z,2.92
2023-04-15T00:57:55.077Z,3.33
2023-04-15T01:00:25.115Z,2.15
2023-04-15T01:02:53.564Z,3.13
2023-04-15T01:05:20.986Z,2.58
2023-04-15T01:07:49.330Z,2.65
2023-04-15T01:10:17.173Z,2.45
2023-04-15T01:12:44.717Z,3.03
2023-04-15T01:15:12.292Z,2.10
2023-04-15T01:17:57.854Z,1.80
2023-04-15T01:20:26.259Z,2.20
2023-04-15T01:22:55.016Z,2.70
2023-04-15T01:25:35.124Z,3.47
2023-04-15T01:28:05.161Z,2.53
2023-04-15T01:30:35.949Z,2.63
2023-04-15T01:33:03.193Z,2.38
2023-04-15T01:35:34.188Z,2.20
2023-04-15T01:38:09.175Z,2.17
2023-04-15T01:40:38.691Z,2.80
2023-04-15T01:43:05.672Z,2.03
2023-04-15T01:45:32.624Z,2.22
2023-04-15T01:47:59.671Z,2.38
2023-04-15T01:50:27.209Z,1.80
2023-04-15T01:52:57.659Z,2.47
2023-04-15T01:55:25.712Z,2.42
2023-04-15T01:57:53.104Z,2.17
2023-04-15T02:00:22.716Z,2.53
2023-04-15T02:03:16.153Z,2.58
2023-04-15T02:05:43.827Z,2.95
2023-04-15T02:08:11.398Z,2.35
2023-04-15T02:10:39.092Z,1.88
2023-04-15T02:13:05.938Z,2.20
2023-04-15T02:15:33.697Z,2.30
2023-04-15T02:18:03.711Z,2.38
2023-04-15T02:20:32.463Z,2.95
2023-04-15T02:22:59.944Z,2.15
2023-04-15T02:25:26.963Z,3.42
2023-04-15T02:27:54.986Z,2.67
2023-04-15T02:30:23.977Z,2.25
2023-04-15T02:32:51.443Z,3.67
2023-04-15T02:35:21.198Z,2.38
2023-04-15T02:37:48.099Z,3.33
2023-04-15T02:40:15.221Z,2.83
2023-04-15T02:42:44.378Z,2.72
2023-04-15T02:45:16.064Z,3.22
2023-04-15T02:47:46.336Z,3.03
2023-04-15T02:50:13.695Z,2.90
2023-04-15T02:52:43.493Z,1.83
2023-04-15T02:55:11.234Z,3.00
2023-04-15T02:57:39.481Z,2.58
2023-04-15T03:00:10.683Z,2.95
2023-04-15T03:02:42.455Z,2.60
2023-04-15T03:05:15.851Z,2.83
2023-04-15T03:07:49.275Z,2.80
2023-04-15T03:10:16.854Z,3.38
2023-04-15T03:12:43.809Z,3.20
2023-04-15T03:15:16.608Z,2.92
2023-04-15T03:17:49.720Z,3.47
2023-04-15T03:20:17.316Z,2.95
2023-04-15T03:22:44.809Z,2.72
2023-04-15T03:25:12.235Z,3.25
2023-04-15T03:27:40.706Z,3.08
2023-04-15T03:30:11.570Z,2.78
2023-04-15T03:32:40.691Z,2.47
2023-04-15T03:35:09.964Z,3.33
2023-04-15T03:37:37.259Z,2.78
2023-04-15T03:40:11.686Z,4.07
2023-04-15T03:42:38.855Z,2.88
2023-04-15T03:45:06.606Z,3.53
2023-04-15T03:47:34.250Z,3.10
2023-04-15T03:50:02.268Z,4.75
2023-04-15T03:52:29.298Z,6.38
2023-04-15T03:54:56.455Z,7.25
2023-04-15T03:57:23.581Z,9.27
2023-04-15T03:59:51.469Z,7.03
2023-04-15T04:02:18.397Z,6.63
2023-04-15T04:04:46.558Z,6.22
2023-04-15T04:07:18.130Z,5.85
2023-04-15T04:09:47.050Z,4.63
2023-04-15T04:12:14.589Z,5.97
2023-04-15T04:14:41.905Z,4.57
2023-04-15T04:17:09.070Z,6.43
2023-04-15T04:19:37.672Z,6.15
2023-04-15T04:22:04.966Z,6.00
2023-04-15T04:24:32.490Z,6.63
2023-04-15T04:27:01.056Z,4.65
2023-04-15T04:29:27.916Z,6.03
2023-04-15T04:34:21.976Z,6.20
2023-04-15T04:36:49.602Z,4.22
2023-04-15T04:39:17.039Z,4.93
2023-04-15T04:41:46.842Z,4.60
2023-04-15T04:44:13.834Z,7.13
2023-04-15T04:46:41.479Z,5.07
2023-04-15T04:49:08.507Z,14.88
2023-04-15T04:51:36.278Z,44.85
2023-04-15T04:54:04.504Z,6.18
2023-04-15T04:56:32.164Z,16.70
2023-04-15T04:58:59.998Z,7.13
2023-04-15T05:01:29.749Z,3.53
2023-04-15T05:03:57.540Z,16.38
2023-04-15T05:06:24.456Z,20.60
2023-04-15T05:08:52.130Z,23.95
2023-04-15T05:11:20.059Z,69.28
2023-04-15T05:13:47.270Z,9.73
2023-04-15T05:16:15.302Z,7.40
2023-04-15T05:18:43.062Z,6.53
2023-04-15T05:21:11.962Z,5.65
2023-04-15T05:23:40.258Z,5.57
2023-04-15T05:26:07.494Z,4.95
2023-04-15T05:28:35.371Z,4.18
2023-04-15T05:31:03.109Z,4.78
2023-04-15T05:33:33.571Z,4.72
2023-04-15T05:36:01.576Z,5.32
2023-04-15T05:38:29.192Z,4.13
2023-04-15T05:40:57.145Z,6.13
2023-04-15T05:43:25.197Z,4.07
2023-04-15T05:45:52.835Z,4.85
2023-04-15T05:48:21.178Z,3.20
2023-04-15T05:50:50.086Z,4.45
2023-04-15T05:53:20.960Z,3.90
2023-04-15T05:55:48.208Z,4.50
2023-04-15T05:58:15.298Z,4.35
2023-04-15T06:00:42.934Z,3.78
2023-04-15T06:03:12.210Z,3.85
2023-04-15T06:05:40.958Z,4.15
2023-04-15T06:08:08.534Z,3.67
2023-04-15T06:10:36.957Z,3.95
2023-04-15T06:13:04.388Z,3.33
2023-04-15T06:15:39.641Z,3.85
2023-04-15T06:18:06.504Z,3.20
2023-04-15T06:20:33.988Z,3.40
2023-04-15T06:23:01.977Z,3.50
2023-04-15T06:25:29.997Z,2.78
2023-04-15T06:27:58.196Z,2.92
2023-04-15T06:30:26.354Z,3.35
2023-04-15T06:32:56.439Z,3.78
2023-04-15T06:35:23.521Z,2.85
2023-04-15T06:37:52.253Z,2.75
2023-04-15T06:40:21.811Z,2.80
2023-04-15T06:42:50.979Z,3.30
2023-04-15T06:45:19.816Z,2.35
2023-04-15T06:47:47.731Z,1.83
2023-04-15T06:50:18.031Z,1.60
2023-04-15T06:52:44.885Z,1.50
2023-04-15T06:55:13.959Z,1.17
2023-04-15T06:57:41.371Z,1.27
2023-04-15T07:00:11.753Z,1.15
2023-04-15T07:02:39.768Z,1.77
2023-04-15T07:05:07.706Z,1.60
2023-04-15T07:07:36.325Z,1.00
2023-04-15T07:32:03.658Z,1.30
2023-04-15T07:34:32.613Z,1.95
2023-04-15T07:37:01.643Z,1.00
2023-04-15T07:39:29.384Z,2.00
2023-04-15T07:41:56.497Z,0.82
2023-04-15T07:44:24.228Z,1.25
2023-04-15T07:46:51.407Z,1.45
2023-04-15T07:49:19.842Z,1.50
2023-04-15T07:51:50.218Z,1.60
2023-04-15T07:54:17.297Z,1.52
2023-04-15T07:56:44.488Z,1.42
2023-04-15T07:59:15.795Z,2.05
2023-04-15T08:01:42.941Z,1.58
2023-04-15T08:04:11.031Z,1.48
2023-04-15T08:06:40.253Z,1.70
2023-04-15T08:09:08.599Z,1.80
2023-04-15T08:11:36.993Z,1.70
2023-04-15T08:14:04.410Z,2.03
2023-04-15T08:16:32.530Z,1.70
2023-04-15T08:19:00.052Z,1.73
2023-04-15T08:21:31.136Z,2.08
2023-04-15T08:23:58.360Z,1.73
2023-04-15T08:26:26.425Z,2.08
2023-04-15T08:28:54.403Z,1.58
2023-04-15T08:31:22.949Z,2.05
2023-04-15T08:33:52.503Z,1.60
2023-04-15T08:36:20.318Z,1.67
2023-04-15T08:38:47.735Z,1.83
2023-04-15T08:41:29.594Z,1.63
2023-04-15T08:44:06.097Z,1.98
2023-04-15T08:46:37.389Z,2.47
2023-04-15T08:49:06.121Z,2.00
2023-04-15T08:51:34.185Z,2.35
2023-04-15T08:54:02.912Z,1.95
2023-04-15T08:56:33.012Z,2.95
2023-04-15T08:59:04.117Z,2.33
2023-04-15T09:01:32.931Z,2.00
2023-04-15T09:04:01.377Z,1.98
2023-04-15T09:06:28.826Z,2.15
2023-04-15T09:08:57.710Z,2.97
2023-04-15T09:11:25.422Z,2.13
2023-04-15T09:13:52.475Z,2.45
2023-04-15T09:16:21.683Z,2.67
2023-04-15T09:18:49.304Z,1.95
2023-04-15T09:21:19.560Z,2.60
2023-04-15T09:24:02.309Z,3.10
2023-04-15T09:26:39.031Z,2.30
2023-04-15T09:29:08.076Z,2.15
2023-04-15T09:31:37.019Z,2.85
2023-04-15T09:34:04.606Z,1.95
2023-04-15T09:36:47.743Z,2.97
2023-04-15T09:39:16.748Z,1.73
2023-04-15T09:41:44.789Z,2.25
2023-04-15T09:44:25.719Z,2.40
2023-04-15T09:46:54.307Z,2.60
2023-04-15T09:49:22.416Z,3.03
2023-04-15T09:52:01.652Z,3.65
2023-04-15T09:54:37.512Z,3.22
2023-04-15T09:57:12.747Z,3.95
2023-04-15T09:59:40.744Z,4.82
2023-04-15T10:02:08.386Z,3.25
2023-04-15T10:04:40.231Z,3.22
2023-04-15T10:07:15.167Z,5.10
2023-04-15T10:09:47.089Z,4.90
2023-04-15T10:12:17.703Z,3.50
2023-04-15T10:14:49.956Z,2.83
2023-04-15T10:17:19.292Z,2.83
2023-04-15T10:19:48.389Z,3.85
2023-04-15T10:22:16.267Z,2.47
2023-04-15T10:24:45.597Z,2.70
2023-04-15T10:27:14.102Z,3.00
2023-04-15T10:29:41.487Z,3.00
2023-04-15T10:32:09.390Z,2.55
2023-04-15T10:34:37.898Z,3.20
2023-04-15T10:37:05.477Z,3.38
2023-04-15T10:39:45.392Z,2.65
2023-04-15T10:42:15.619Z,2.97
2023-04-15T10:44:56.712Z,2.67
2023-04-15T10:47:24.260Z,3.75
2023-04-15T10:49:57.156Z,2.97
2023-04-15T10:52:27.574Z,3.47
2023-04-15T10:55:12.938Z,3.10
2023-04-15T10:57:41.667Z,3.17
2023-04-15T11:00:18.551Z,4.07
2023-04-15T11:03:06.331Z,4.10
2023-04-15T11:05:43.114Z,3.30
2023-04-15T11:08:14.203Z,3.83
2023-04-15T11:10:41.480Z,4.40
2023-04-15T11:13:11.949Z,4.05
2023-04-15T11:15:46.999Z,3.75
2023-04-15T11:18:18.762Z,6.10
2023-04-15T11:21:00.311Z,4.00
2023-04-15T11:23:41.640Z,3.53
2023-04-15T11:26:12.555Z,4.50
2023-04-15T11:28:42.345Z,3.83
2023-04-15T11:31:18.537Z,3.83
2023-04-15T11:33:56.709Z,4.00
2023-04-15T11:36:28.734Z,3.90
2023-04-15T11:38:57.947Z,3.50
2023-04-15T11:41:25.498Z,5.45
2023-04-15T11:43:53.227Z,3.35
2023-04-15T11:46:22.167Z,4.47
2023-04-15T11:48:49.342Z,7.45
2023-04-15T11:51:22.101Z,24.20
2023-04-15T11:53:51.157Z,3.75
2023-04-15T11:56:23.574Z,3.85
2023-04-15T11:59:01.202Z,3.72
2023-04-15T12:01:47.042Z,17.88
2023-04-15T12:04:18.681Z,4.50
2023-04-15T12:06:49.073Z,3.88
2023-04-15T12:09:17.424Z,3.60
2023-04-15T12:11:44.915Z,4.40
2023-04-15T12:14:28.595Z,5.72
2023-04-15T12:16:58.859Z,3.85
2023-04-15T12:19:48.700Z,3.88
2023-04-15T12:22:17.795Z,3.63
2023-04-15T12:24:48.327Z,3.47
2023-04-15T12:27:17.825Z,3.85
2023-04-15T12:29:45.249Z,3.47
2023-04-15T12:32:13.363Z,3.47
2023-04-15T12:34:58.328Z,3.33
2023-04-15T12:37:26.191Z,2.67
2023-04-15T12:39:54.078Z,3.80
2023-04-15T12:42:22.883Z,5.18
2023-04-15T12:44:50.333Z,3.03
2023-04-15T12:47:18.732Z,2.40
2023-04-15T12:49:45.888Z,2.95
2023-04-15T12:52:13.913Z,3.13
2023-04-15T12:54:41.282Z,2.70
2023-04-15T12:57:08.461Z,3.70
2023-04-15T12:59:37.240Z,3.72
2023-04-15T13:02:05.893Z,2.80
2023-04-15T13:04:33.870Z,3.53
2023-04-15T13:07:02.614Z,3.85
2023-04-15T13:09:29.500Z,3.40
2023-04-15T13:11:57.763Z,2.58
2023-04-15T13:14:25.676Z,4.78
2023-04-15T13:16:54.042Z,7.07
2023-04-15T13:19:21.476Z,3.65
2023-04-15T13:21:49.826Z,3.17
2023-04-15T13:24:18.192Z,3.75
2023-04-15T13:26:45.351Z,3.35
2023-04-15T13:29:14.731Z,3.38
2023-04-15T13:31:44.171Z,4.45
2023-04-15T13:34:11.601Z,3.50
2023-04-15T13:36:39.188Z,4.05
2023-04-15T13:39:06.656Z,3.20
2023-04-15T13:41:33.707Z,3.30
2023-04-15T13:44:01.409Z,2.50
2023-04-15T13:46:28.760Z,3.05
2023-04-15T13:48:56.197Z,4.00
2023-04-15T13:51:23.384Z,2.95
2023-04-15T13:53:50.876Z,2.67
2023-04-15T13:56:18.970Z,2.25
2023-04-15T13:58:46.453Z,3.75
2023-04-15T14:01:13.815Z,3.53
2023-04-15T14:03:42.315Z,2.58
2023-04-15T14:06:10.892Z,2.80
2023-04-15T14:08:39.100Z,4.47
2023-04-15T14:11:06.681Z,6.68
2023-04-15T14:13:34.734Z,2.53
2023-04-15T14:16:02.669Z,2.53
2023-04-15T14:18:31.235Z,2.80
2023-04-15T14:20:59.052Z,4.15
2023-04-15T14:23:26.849Z,2.45
2023-04-15T14:25:54.414Z,2.95
2023-04-15T14:28:22.544Z,2.50
2023-04-15T14:30:50.142Z,27.98
2023-04-15T14:33:18.079Z,11.50
2023-04-15T14:35:46.696Z,39.83
2023-04-15T14:38:14.021Z,11.45
2023-04-15T14:40:42.649Z,22.38
2023-04-15T14:43:09.675Z,3.70
2023-04-15T14:45:39.482Z,2.35
2023-04-15T14:48:10.246Z,2.83
2023-04-15T14:50:37.826Z,2.83
2023-04-15T14:53:05.770Z,4.82
2023-04-15T14:55:41.355Z,2.92
2023-04-15T14:58:09.606Z,2.88
2023-04-15T15:00:41.492Z,2.80
2023-04-15T15:03:13.228Z,2.97
2023-04-15T15:05:46.783Z,4.35
2023-04-15T15:08:14.302Z,3.13
2023-04-15T15:10:49.478Z,3.28
2023-04-15T15:13:18.092Z,2.78
2023-04-15T15:15:45.637Z,2.42
2023-04-15T15:18:13.449Z,2.40
2023-04-15T15:20:41.285Z,2.22
2023-04-15T15:23:08.892Z,2.50
2023-04-15T15:25:36.405Z,2.65
2023-04-15T15:28:03.876Z,2.95
2023-04-15T15:30:31.404Z,3.22
2023-04-15T15:32:58.466Z,3.13
2023-04-15T15:35:26.191Z,3.88
2023-04-15T15:37:55.259Z,3.28
2023-04-15T15:40:24.831Z,3.28
2023-04-15T15:42:53.087Z,3.50
2023-04-15T15:45:20.714Z,3.58
2023-04-15T15:47:48.150Z,2.88
2023-04-15T15:50:15.858Z,3.15
2023-04-15T15:52:43.735Z,2.78
2023-04-15T15:55:11.437Z,3.45
2023-04-15T15:57:38.618Z,2.65
2023-04-15T16:03:04.297Z,5.05
2023-04-15T16:05:25.544Z,3.08
2023-04-15T16:07:53.142Z,3.13
2023-04-15T16:10:20.694Z,2.60
2023-04-15T16:12:47.850Z,3.13
2023-04-15T16:15:15.998Z,2.53
2023-04-15T16:17:43.530Z,2.67
2023-04-15T16:20:11.236Z,3.28
2023-04-15T16:22:39.839Z,3.00
2023-04-15T16:25:07.705Z,3.33
2023-04-15T16:27:49.957Z,23.48
2023-04-15T16:30:23.898Z,3.45
2023-04-15T16:32:53.160Z,2.53
2023-04-15T16:35:22.222Z,2.72
2023-04-15T16:37:49.818Z,22.65
2023-04-15T16:40:17.273Z,4.00
2023-04-15T16:42:44.723Z,2.40
2023-04-15T16:45:12.846Z,2.55
2023-04-15T16:47:40.170Z,3.08
2023-04-15T16:50:08.071Z,3.90
2023-04-15T16:52:37.463Z,3.72
2023-04-15T16:55:06.186Z,4.07
2023-04-15T16:58:01.836Z,3.67
2023-04-15T17:00:24.566Z,2.97
2023-04-15T17:02:53.582Z,3.83
2023-04-15T17:05:21.517Z,4.28
2023-04-15T17:07:48.661Z,3.35
2023-04-15T17:10:15.768Z,5.10
2023-04-15T17:12:43.322Z,9.60
2023-04-15T17:15:10.693Z,9.20
2023-04-15T17:17:37.628Z,8.35
2023-04-15T17:20:05.490Z,5.25
2023-04-15T17:22:35.128Z,3.45
2023-04-15T17:25:03.294Z,5.43
2023-04-15T17:27:31.061Z,4.35
2023-04-15T17:29:58.204Z,10.70
2023-04-15T17:32:32.009Z,14.55
2023-04-15T17:35:00.026Z,13.50
2023-04-15T17:37:27.736Z,11.75
2023-04-15T17:39:55.089Z,9.48
2023-04-15T17:42:23.149Z,12.50
2023-04-15T17:44:50.783Z,6.20
2023-04-15T17:47:17.751Z,7.15
2023-04-15T17:49:45.522Z,6.72
2023-04-15T17:52:12.878Z,6.32
2023-04-15T17:54:40.497Z,4.68
2023-04-15T17:57:07.876Z,5.43
2023-04-15T17:59:35.472Z,5.25
2023-04-15T18:02:02.845Z,9.30
2023-04-15T18:04:29.971Z,6.55
2023-04-15T18:06:56.923Z,9.73
2023-04-15T18:09:24.108Z,12.43
2023-04-15T18:11:51.266Z,15.90
2023-04-15T18:14:33.045Z,14.15
2023-04-15T18:17:02.890Z,13.48
2023-04-15T18:19:30.710Z,11.90
2023-04-15T18:22:00.727Z,16.98
2023-04-15T18:24:28.893Z,13.48
2023-04-15T18:26:59.256Z,12.02
2023-04-15T18:29:26.507Z,13.63
2023-04-15T18:31:54.115Z,10.25
2023-04-15T18:34:21.600Z,11.00
2023-04-15T18:36:48.359Z,10.07
2023-04-15T18:39:16.753Z,9.13
2023-04-15T18:41:43.988Z,9.98
2023-04-15T18:44:10.942Z,6.60
2023-04-15T18:46:38.155Z,11.13
2023-04-15T18:49:06.544Z,10.60
2023-04-15T18:51:33.788Z,9.05
2023-04-15T18:54:01.103Z,8.35
2023-04-15T18:56:28.155Z,9.80
2023-04-15T18:59:08.920Z,9.07
2023-04-15T19:01:42.211Z,10.30
2023-04-15T19:04:10.277Z,9.30
2023-04-15T19:06:37.708Z,9.13
2023-04-15T19:09:05.793Z,9.23
2023-04-15T19:11:33.463Z,10.20
2023-04-15T19:14:01.707Z,7.88
2023-04-15T19:16:28.511Z,7.57
2023-04-15T19:18:55.611Z,7.88
2023-04-15T19:21:23.002Z,7.50
2023-04-15T19:23:50.299Z,7.50
2023-04-15T19:26:17.492Z,7.32
2023-04-15T19:28:44.548Z,7.38
2023-04-15T19:31:11.866Z,7.43
2023-04-15T19:33:38.969Z,7.05
2023-04-15T19:36:07.246Z,7.40
2023-04-15T19:38:37.908Z,8.48
2023-04-15T19:41:04.805Z,9.13
2023-04-15T19:43:33.362Z,10.00
2023-04-15T19:46:00.646Z,9.55
2023-04-15T19:48:28.069Z,8.48
2023-04-15T19:50:55.381Z,9.75
2023-04-15T19:53:22.877Z,9.65
2023-04-15T19:55:50.333Z,11.15
2023-04-15T19:58:17.125Z,9.77
2023-04-15T20:00:45.028Z,10.20
2023-04-15T20:03:12.866Z,11.07
2023-04-15T20:05:40.194Z,9.38
2023-04-15T20:08:07.019Z,10.13
2023-04-15T20:10:35.433Z,9.15
2023-04-15T20:13:02.426Z,12.27
2023-04-15T20:15:29.456Z,9.45
2023-04-15T20:17:56.731Z,13.40
2023-04-15T20:20:23.885Z,13.35
2023-04-15T20:22:52.811Z,13.07
2023-04-15T20:25:20.307Z,15.15
2023-04-15T20:27:47.376Z,18.48
2023-04-15T20:30:14.663Z,13.82
2023-04-15T20:32:42.341Z,17.48
2023-04-15T20:35:09.354Z,19.73
2023-04-15T20:37:37.511Z,22.35
2023-04-15T20:40:05.154Z,22.88
2023-04-15T20:42:35.272Z,26.48
2023-04-15T20:45:03.249Z,26.23
2023-04-15T20:47:30.521Z,24.38
2023-04-15T20:49:57.442Z,21.70
2023-04-15T20:52:24.201Z,20.25
2023-04-15T20:54:51.848Z,23.20
2023-04-15T20:57:20.260Z,18.00
2023-04-15T20:59:47.680Z,18.58
2023-04-15T21:02:15.356Z,17.63
2023-04-15T21:04:42.798Z,19.27
2023-04-15T21:07:10.132Z,19.85
2023-04-15T21:09:41.798Z,18.83
2023-04-15T21:12:10.468Z,17.55
2023-04-15T21:14:39.721Z,17.50
2023-04-15T21:17:10.846Z,19.17
2023-04-15T21:19:38.822Z,18.75
2023-04-15T21:22:05.968Z,17.88
2023-04-15T21:24:33.508Z,16.85
2023-04-15T21:27:02.285Z,15.77
2023-04-15T21:29:29.573Z,15.27
2023-04-15T21:31:57.087Z,18.65
2023-04-15T21:34:24.050Z,16.10
2023-04-15T21:36:52.847Z,14.10
2023-04-15T21:39:19.695Z,15.35
2023-04-15T21:41:46.829Z,16.88
2023-04-15T21:44:15.106Z,16.05
2023-04-15T21:46:46.365Z,15.73
2023-04-15T21:49:13.985Z,17.83
2023-04-15T21:51:40.989Z,19.45
2023-04-15T21:54:08.309Z,15.80
2023-04-15T21:56:35.537Z,16.20
2023-04-15T21:59:03.473Z,15.20
2023-04-15T22:01:30.994Z,18.15
2023-04-15T22:03:58.131Z,15.13
2023-04-15T22:06:25.348Z,11.57
2023-04-15T22:08:56.735Z,12.27
2023-04-15T22:11:30.484Z,13.00
2023-04-15T22:13:59.200Z,14.13
2023-04-15T22:16:26.776Z,14.05
2023-04-15T22:18:55.393Z,21.08
2023-04-15T22:21:22.963Z,23.83
2023-04-15T22:23:50.463Z,25.10
2023-04-15T22:26:17.379Z,23.05
2023-04-15T22:28:44.274Z,22.15
2023-04-15T22:31:11.640Z,21.88
2023-04-15T22:33:39.964Z,16.27
2023-04-15T22:36:06.961Z,16.92
2023-04-15T22:38:34.060Z,17.45
2023-04-15T22:41:01.401Z,18.38
2023-04-15T22:43:28.277Z,19.60
2023-04-15T22:45:57.542Z,16.48
2023-04-15T22:48:24.822Z,17.35
2023-04-15T22:50:52.322Z,18.42
2023-04-15T22:53:20.276Z,20.10
2023-04-15T22:55:48.459Z,18.50
2023-04-15T22:58:18.583Z,17.95
2023-04-15T23:00:46.086Z,19.27
2023-04-15T23:03:13.963Z,18.52
2023-04-15T23:05:42.158Z,15.90
2023-04-15T23:08:09.328Z,16.35
2023-04-15T23:10:36.963Z,18.90
2023-04-15T23:13:03.959Z,19.98
2023-04-15T23:15:30.995Z,21.00
2023-04-15T23:17:57.870Z,18.52
2023-04-15T23:20:24.732Z,17.58
2023-04-15T23:22:51.711Z,20.52
2023-04-15T23:25:22.387Z,19.27
2023-04-15T23:27:49.270Z,17.00
2023-04-15T23:30:16.097Z,17.05
2023-04-15T23:32:43.469Z,17.65
2023-04-15T23:35:10.869Z,23.20
2023-04-15T23:37:37.942Z,18.90
2023-04-15T23:40:05.459Z,19.58
2023-04-15T23:42:32.338Z,18.13
2023-04-15T23:44:59.858Z,16.48
2023-04-15T23:47:27.267Z,18.55
2023-04-15T23:49:54.472Z,18.85
2023-04-15T23:52:21.353Z,20.23
2023-04-15T23:54:49.014Z,21.05
2023-04-15T23:57:16.377Z,20.02
2023-04-15T23:59:43.297Z,22.10
